Time;durP1;ratioP1;P1;durP2;ratioP2;P2;SDS_P1;SDS_P2;PMS_P1;PMS_P2;Temp;Humidity;BMP_temperature;BMP_pressure;BME280_temperature;BME280_humidity;BME280_pressure;Samples;Min_cycle;Max_cycle;Signal;HPM_P1;HPM_P2
2022/06/17 00:01:28;;;;;;;1.45;1.20;;;14.90;70.40;;;;;;5096956;28;20119;-76
2022/06/17 00:03:55;;;;;;;1.40;1.30;;;14.90;70.60;;;;;;5103643;28;20020;-74
2022/06/17 00:06:24;;;;;;;3.15;1.10;;;14.90;70.60;;;;;;5097371;28;20036;-76
2022/06/17 00:08:53;;;;;;;1.70;1.17;;;15.00;71.10;;;;;;5102229;28;20035;-73
2022/06/17 00:11:27;;;;;;;1.63;1.20;;;15.00;71.30;;;;;;5104121;28;20031;-74
2022/06/17 00:13:54;;;;;;;1.15;1.05;;;15.00;71.20;;;;;;5105219;28;20043;-73
2022/06/17 00:16:22;;;;;;;2.53;1.27;;;15.00;70.60;;;;;;5103092;28;20184;-74
2022/06/17 00:18:49;;;;;;;1.15;0.98;;;15.00;70.40;;;;;;5102077;28;20116;-74
2022/06/17 00:21:22;;;;;;;1.65;1.00;;;15.00;70.30;;;;;;5101090;28;20036;-72
2022/06/17 00:23:49;;;;;;;1.83;0.90;;;15.00;69.60;;;;;;5096654;28;20044;-74
2022/06/17 00:26:15;;;;;;;2.20;0.80;;;15.00;69.80;;;;;;5097349;28;20039;-71
2022/06/17 00:28:42;;;;;;;3.53;0.70;;;15.00;69.60;;;;;;5104147;28;20035;-70
2022/06/17 00:31:09;;;;;;;3.22;1.27;;;15.00;70.20;;;;;;5100910;28;20035;-71
2022/06/17 00:33:35;;;;;;;2.38;0.85;;;15.00;70.40;;;;;;5096509;28;20037;-73
2022/06/17 00:36:03;;;;;;;1.35;0.70;;;15.00;70.80;;;;;;5099528;28;20036;-72
2022/06/17 00:38:33;;;;;;;1.23;0.80;;;15.00;70.60;;;;;;5097832;28;20046;-74
2022/06/17 00:41:16;;;;;;;1.27;0.95;;;15.00;70.80;;;;;;5109748;28;20720;-74
2022/06/17 00:43:44;;;;;;;1.10;0.80;;;15.00;70.60;;;;;;5101393;28;20032;-76
2022/06/17 00:46:22;;;;;;;7.60;1.20;;;15.00;71.00;;;;;;5098410;28;20028;-72
2022/06/17 00:49:05;;;;;;;1.20;0.73;;;15.00;71.30;;;;;;5097511;28;20110;-74
2022/06/17 00:51:46;;;;;;;0.70;0.70;;;15.00;71.40;;;;;;5101800;28;20035;-75
2022/06/17 00:54:15;;;;;;;5.55;0.80;;;15.10;71.80;;;;;;5098286;28;20600;-75
2022/06/17 00:56:41;;;;;;;4.78;0.55;;;15.00;72.80;;;;;;5098949;28;20093;-72
2022/06/17 00:59:16;;;;;;;1.73;0.60;;;15.10;72.60;;;;;;5099425;28;20118;-70
2022/06/17 01:01:53;;;;;;;2.35;0.82;;;15.00;72.40;;;;;;5099297;28;20032;-77
2022/06/17 01:04:24;;;;;;;0.30;0.30;;;15.00;72.20;;;;;;5096724;28;20044;-77
2022/06/17 01:06:59;;;;;;;1.17;0.40;;;15.10;71.90;;;;;;5096940;28;20034;-72
2022/06/17 01:12:19;;;;;;;0.52;0.38;;;15.00;71.50;;;;;;5105948;28;20055;-69
2022/06/17 01:14:46;;;;;;;0.40;0.40;;;15.00;71.60;;;;;;5100622;28;20106;-75
2022/06/17 01:17:16;;;;;;;1.27;0.30;;;15.00;71.30;;;;;;5094478;28;20031;-76
2022/06/17 01:19:46;;;;;;;0.45;0.30;;;15.00;70.90;;;;;;5098702;28;20085;-75
2022/06/17 01:22:21;;;;;;;0.60;0.47;;;15.00;70.50;;;;;;5100910;28;20035;-72
2022/06/17 01:24:51;;;;;;;3.83;0.68;;;15.00;70.20;;;;;;5091772;28;20102;-75
2022/06/17 01:27:23;;;;;;;3.00;0.50;;;15.00;70.00;;;;;;5098867;28;20058;-73
2022/06/17 01:29:49;;;;;;;7.10;1.00;;;15.00;70.00;;;;;;5102452;28;20024;-74
2022/06/17 01:32:19;;;;;;;2.15;0.70;;;14.90;70.10;;;;;;5100089;28;20046;-70
2022/06/17 01:34:46;;;;;;;1.33;0.68;;;15.00;70.10;;;;;;5098854;28;20036;-76
2022/06/17 01:37:13;;;;;;;4.53;0.70;;;14.90;70.20;;;;;;5102013;28;20423;-78
2022/06/17 01:39:42;;;;;;;2.67;0.98;;;14.90;70.00;;;;;;5092396;28;20104;-69
2022/06/17 01:42:10;;;;;;;3.50;1.17;;;14.90;70.10;;;;;;5099367;28;20486;-74
2022/06/17 01:44:40;;;;;;;2.55;0.93;;;14.90;69.80;;;;;;5098421;28;20111;-75
2022/06/17 01:47:11;;;;;;;1.77;0.70;;;14.90;69.50;;;;;;5098183;28;20648;-75
2022/06/17 01:49:53;;;;;;;1.42;0.60;;;14.90;69.30;;;;;;5100169;28;20028;-74
2022/06/17 01:52:29;;;;;;;3.15;0.50;;;14.90;69.40;;;;;;5099064;28;20379;-73
2022/06/17 01:55:00;;;;;;;1.83;0.70;;;14.90;69.10;;;;;;5099786;28;20035;-70
2022/06/17 01:57:47;;;;;;;2.42;0.60;;;14.90;68.90;;;;;;5096444;28;20389;-70
2022/06/17 02:00:25;;;;;;;1.25;0.60;;;14.90;68.80;;;;;;5096557;28;20032;-71
2022/06/17 02:03:05;;;;;;;3.13;0.88;;;14.90;68.70;;;;;;5095334;28;20046;-75
2022/06/17 02:05:33;;;;;;;1.73;0.50;;;14.90;67.50;;;;;;5102306;28;20057;-73
2022/06/17 02:08:03;;;;;;;1.65;0.80;;;15.00;68.30;;;;;;5103235;28;20123;-75
2022/06/17 02:10:38;;;;;;;1.30;0.90;;;15.00;68.00;;;;;;5096831;28;20036;-70
2022/06/17 02:13:06;;;;;;;1.08;0.50;;;15.00;67.90;;;;;;5101994;28;20494;-70
2022/06/17 02:15:34;;;;;;;1.13;0.65;;;15.00;68.40;;;;;;5100608;28;20040;-70
2022/06/17 02:18:02;;;;;;;1.50;1.20;;;15.00;68.80;;;;;;5099268;28;20036;-74
2022/06/17 02:20:28;;;;;;;1.58;1.10;;;15.00;68.90;;;;;;5097272;28;20119;-79
2022/06/17 02:22:56;;;;;;;1.48;0.80;;;15.00;69.20;;;;;;5101709;28;20115;-70
2022/06/17 02:25:27;;;;;;;1.98;0.80;;;15.00;68.80;;;;;;5097078;28;20035;-72
2022/06/17 02:27:57;;;;;;;5.07;0.90;;;15.00;69.00;;;;;;5101888;28;20115;-73
2022/06/17 02:30:25;;;;;;;6.20;1.40;;;15.00;69.70;;;;;;5099831;28;20506;-77
2022/06/17 02:32:53;;;;;;;3.90;0.80;;;15.00;69.90;;;;;;5103002;28;20035;-77
2022/06/17 02:35:32;;;;;;;3.40;0.63;;;15.10;70.40;;;;;;5096472;28;20032;-73
2022/06/17 02:37:59;;;;;;;5.00;1.20;;;15.10;71.30;;;;;;5094147;28;20031;-71
2022/06/17 02:40:33;;;;;;;1.38;0.50;;;15.10;70.90;;;;;;5099455;28;20020;-73
2022/06/17 02:43:03;;;;;;;1.42;0.35;;;15.10;71.00;;;;;;5102946;28;20032;-75
2022/06/17 02:45:34;;;;;;;1.95;1.08;;;15.00;70.00;;;;;;5097564;28;20544;-72
2022/06/17 02:48:04;;;;;;;0.82;0.40;;;15.00;69.70;;;;;;5093628;28;20436;-76
2022/06/17 02:50:31;;;;;;;2.30;0.50;;;15.00;69.60;;;;;;5094209;28;20063;-74
2022/06/17 02:53:00;;;;;;;3.40;0.68;;;15.00;69.40;;;;;;5104998;28;20039;-74
2022/06/17 02:55:39;;;;;;;6.50;0.77;;;15.00;69.60;;;;;;5094583;28;20031;-74
2022/06/17 02:58:28;;;;;;;1.65;0.40;;;15.00;70.70;;;;;;5100285;28;20032;-71
2022/06/17 03:00:58;;;;;;;2.78;0.45;;;15.00;70.60;;;;;;5095420;28;20043;-75
2022/06/17 03:03:25;;;;;;;17.60;0.85;;;15.00;70.80;;;;;;5103865;28;20032;-74
2022/06/17 03:05:51;;;;;;;4.07;0.55;;;15.00;70.50;;;;;;5101068;28;20080;-75
2022/06/17 03:08:25;;;;;;;1.70;0.50;;;15.00;70.00;;;;;;5099244;28;20028;-71
2022/06/17 03:10:55;;;;;;;6.70;0.98;;;15.00;69.50;;;;;;5093918;28;20067;-76
2022/06/17 03:13:42;;;;;;;2.35;0.40;;;15.00;69.30;;;;;;5098998;28;20432;-75
2022/06/17 03:16:12;;;;;;;3.47;0.52;;;15.00;68.80;;;;;;5102379;28;20043;-72
2022/06/17 03:18:39;;;;;;;0.50;0.28;;;15.00;68.10;;;;;;5106365;28;20032;-72
2022/06/17 03:21:07;;;;;;;13.02;1.77;;;14.90;68.10;;;;;;5097354;28;20039;-69
2022/06/17 03:23:44;;;;;;;2.83;0.80;;;14.90;68.00;;;;;;5103838;28;20117;-74
2022/06/17 03:26:22;;;;;;;5.13;1.42;;;14.90;68.00;;;;;;5101899;28;20040;-68
2022/06/17 03:28:51;;;;;;;7.60;0.80;;;15.00;68.50;;;;;;5106758;28;20435;-74
2022/06/17 03:31:57;;;;;;;1.38;0.63;;;15.00;68.20;;;;;;5100783;28;20032;-78
2022/06/17 03:34:43;;;;;;;0.30;0.30;;;15.00;69.30;;;;;;5095830;28;20529;-72
2022/06/17 03:37:20;;;;;;;0.70;0.40;;;15.10;68.80;;;;;;5107042;28;20034;-71
2022/06/17 03:39:55;;;;;;;1.13;0.50;;;15.00;68.10;;;;;;5101462;28;20132;-76
2022/06/17 03:42:35;;;;;;;17.50;4.72;;;15.00;67.80;;;;;;5105631;28;20550;-79
2022/06/17 03:45:11;;;;;;;30.40;12.63;;;15.00;67.20;;;;;;5101385;28;20039;-72
2022/06/17 03:48:09;;;;;;;17.10;10.60;;;15.00;68.00;;;;;;5082730;28;20031;-74
2022/06/17 03:51:15;;;;;;;37.60;6.63;;;15.00;68.30;;;;;;5100155;28;20036;-73
2022/06/17 03:54:21;;;;;;;7.97;5.15;;;15.00;67.60;;;;;;5107363;28;20046;-76
2022/06/17 03:57:27;;;;;;;6.63;3.55;;;14.90;67.50;;;;;;5098632;28;20126;-69
2022/06/17 04:00:34;;;;;;;3.72;2.40;;;14.90;67.00;;;;;;5097718;28;20036;-75
2022/06/17 04:03:31;;;;;;;3.75;2.67;;;14.90;66.70;;;;;;5101111;28;20036;-69
2022/06/17 04:06:12;;;;;;;7.28;1.80;;;14.80;66.50;;;;;;5088626;28;20038;-71
2022/06/17 04:08:55;;;;;;;2.42;1.25;;;14.90;66.40;;;;;;5098919;28;20040;-73
2022/06/17 04:11:24;;;;;;;3.65;1.00;;;14.80;66.30;;;;;;5099799;28;20471;-68
2022/06/17 04:13:53;;;;;;;4.78;0.60;;;14.80;66.90;;;;;;5104205;28;20068;-70
2022/06/17 04:16:52;;;;;;;1.13;0.70;;;14.80;66.10;;;;;;5101700;28;20036;-69
2022/06/17 04:19:25;;;;;;;5.18;1.52;;;14.80;66.30;;;;;;5102076;28;20042;-73
2022/06/17 04:21:56;;;;;;;14.38;6.35;;;14.90;67.20;;;;;;5103174;27;20122;-64
2022/06/17 04:24:25;;;;;;;16.23;9.68;;;14.90;67.40;;;;;;5100090;27;20032;-75
2022/06/17 04:27:02;;;;;;;9.52;7.15;;;14.90;67.10;;;;;;5097923;28;20478;-71
2022/06/17 04:29:37;;;;;;;9.30;6.45;;;14.90;66.90;;;;;;5100285;27;20034;-77
2022/06/17 04:32:18;;;;;;;6.70;5.43;;;14.90;67.30;;;;;;5101601;27;20032;-76
2022/06/17 04:34:45;;;;;;;5.72;3.03;;;14.90;67.50;;;;;;5097976;28;20066;-72
2022/06/17 04:37:20;;;;;;;11.02;5.47;;;14.90;67.60;;;;;;5102742;28;20023;-74
2022/06/17 04:39:49;;;;;;;;;;;14.90;67.30;;;;;;5103049;27;20487;-75
2022/06/17 04:42:44;;;;;;;10.15;6.15;;;14.90;67.50;;;;;;5107741;28;19908;-77
2022/06/17 04:45:24;;;;;;;14.80;6.50;;;14.90;67.40;;;;;;5097852;28;20115;-73
2022/06/17 04:47:51;;;;;;;8.02;4.47;;;14.80;67.20;;;;;;5095493;28;20417;-77
2022/06/17 04:50:21;;;;;;;7.03;3.05;;;14.90;67.20;;;;;;5102732;28;20059;-75
2022/06/17 04:52:51;;;;;;;7.88;3.00;;;14.90;67.60;;;;;;5091020;28;20095;-76
2022/06/17 04:55:36;;;;;;;9.07;2.45;;;14.90;67.60;;;;;;5093723;28;20036;-75
2022/06/17 04:58:43;;;;;;;6.32;2.40;;;14.90;67.30;;;;;;5073961;28;20044;-72
2022/06/17 05:01:52;;;;;;;3.35;1.02;;;14.90;67.20;;;;;;5090548;28;20497;-73
2022/06/17 05:04:58;;;;;;;1.42;0.80;;;14.90;67.10;;;;;;5091621;28;20032;-73
2022/06/17 05:08:04;;;;;;;1.67;0.98;;;14.90;67.10;;;;;;5091763;28;20421;-73
2022/06/17 05:11:10;;;;;;;3.60;1.05;;;14.90;67.20;;;;;;5126778;27;20494;-73
2022/06/17 05:14:16;;;;;;;6.95;1.02;;;14.90;67.20;;;;;;5127195;27;20039;-74
2022/06/17 05:16:42;;;;;;;1.52;0.50;;;14.90;67.30;;;;;;5119394;27;20410;-75
2022/06/17 05:19:09;;;;;;;2.80;0.80;;;14.90;67.50;;;;;;5130213;27;20046;-76
2022/06/17 05:21:35;;;;;;;5.35;0.80;;;14.90;67.50;;;;;;5091209;28;20047;-76
2022/06/17 05:24:02;;;;;;;7.95;0.90;;;14.90;67.40;;;;;;5091289;28;20512;-74
2022/06/17 05:26:29;;;;;;;5.40;0.80;;;14.90;67.60;;;;;;5090725;28;20020;-75
2022/06/17 05:28:55;;;;;;;6.25;1.15;;;14.90;67.30;;;;;;5091512;28;20024;-72
2022/06/17 05:31:24;;;;;;;0.65;0.35;;;14.90;67.10;;;;;;5090293;28;20078;-72
2022/06/17 05:33:51;;;;;;;5.28;0.90;;;14.90;67.20;;;;;;5091335;28;20479;-75
2022/06/17 05:36:17;;;;;;;1.10;0.50;;;14.80;67.10;;;;;;5090372;28;20047;-72
2022/06/17 05:38:44;;;;;;;1.05;0.45;;;14.90;67.20;;;;;;5091218;28;20071;-72
2022/06/17 05:41:23;;;;;;;3.00;0.57;;;14.80;67.00;;;;;;5101797;28;20024;-72
2022/06/17 05:43:50;;;;;;;2.13;0.80;;;14.80;66.90;;;;;;5110518;28;20058;-73
2022/06/17 05:46:18;;;;;;;6.20;0.63;;;14.80;66.90;;;;;;5111561;28;20023;-72
2022/06/17 05:48:44;;;;;;;2.78;0.82;;;14.80;67.10;;;;;;5110392;28;20474;-73
2022/06/17 05:51:12;;;;;;;5.35;0.47;;;14.80;67.10;;;;;;5111342;28;20043;-72
2022/06/17 05:53:38;;;;;;;2.08;0.93;;;14.80;67.30;;;;;;5110469;28;20048;-73
2022/06/17 05:56:05;;;;;;;5.05;0.93;;;14.80;67.10;;;;;;5111236;28;20180;-73
2022/06/17 05:58:32;;;;;;;8.50;0.80;;;14.80;67.30;;;;;;5111128;28;20020;-72
2022/06/17 06:00:58;;;;;;;10.57;1.08;;;14.80;67.40;;;;;;5110536;28;20097;-74
2022/06/17 06:03:27;;;;;;;3.20;0.75;;;14.80;67.20;;;;;;5111440;28;20517;-74
2022/06/17 06:05:54;;;;;;;8.80;1.58;;;14.80;67.20;;;;;;5110176;28;20028;-74
2022/06/17 06:08:21;;;;;;;6.72;0.82;;;14.80;67.40;;;;;;5111147;28;20024;-73
2022/06/17 06:10:47;;;;;;;6.85;1.70;;;14.90;67.70;;;;;;5110157;28;20031;-74
2022/06/17 06:13:16;;;;;;;7.93;1.00;;;14.90;67.50;;;;;;5110758;28;20122;-74
2022/06/17 06:15:46;;;;;;;2.55;0.60;;;14.90;67.30;;;;;;5092184;28;20657;-71
2022/06/17 06:18:19;;;;;;;2.53;0.47;;;14.80;67.10;;;;;;5110130;28;20114;-72
2022/06/17 06:20:46;;;;;;;1.88;0.57;;;14.90;67.90;;;;;;5110823;28;20052;-74
2022/06/17 06:23:13;;;;;;;2.92;1.00;;;14.90;66.90;;;;;;5109803;28;20063;-74
2022/06/17 06:25:39;;;;;;;2.33;0.63;;;14.90;66.90;;;;;;5110876;28;20525;-72
2022/06/17 06:28:25;;;;;;;5.63;0.73;;;14.90;66.90;;;;;;5109615;28;20035;-72
2022/06/17 06:31:02;;;;;;;6.28;0.70;;;14.90;66.80;;;;;;5110192;28;20028;-72
2022/06/17 06:33:28;;;;;;;4.35;1.02;;;14.90;67.30;;;;;;5110701;28;20051;-72
2022/06/17 06:35:55;;;;;;;4.80;0.77;;;14.90;66.90;;;;;;5109525;28;21132;-74
2022/06/17 06:38:21;;;;;;;8.30;0.98;;;14.90;66.30;;;;;;5110478;28;20062;-73
2022/06/17 06:40:48;;;;;;;3.40;0.95;;;14.90;66.10;;;;;;5109529;28;20023;-73
2022/06/17 06:43:20;;;;;;;7.38;1.15;;;14.90;65.90;;;;;;5110495;28;20107;-72
2022/06/17 06:45:50;;;;;;;4.53;0.65;;;14.80;65.70;;;;;;5110027;28;20494;-73
2022/06/17 06:48:20;;;;;;;2.95;0.52;;;14.80;65.70;;;;;;5109730;28;20051;-75
2022/06/17 06:50:46;;;;;;;3.30;0.70;;;14.80;65.30;;;;;;5109848;28;20062;-72
2022/06/17 06:53:13;;;;;;;2.75;0.50;;;14.80;65.90;;;;;;5109323;28;20063;-72
2022/06/17 06:55:40;;;;;;;0.88;0.45;;;14.80;65.30;;;;;;5110564;28;20031;-72
2022/06/17 06:58:22;;;;;;;2.05;0.57;;;14.80;65.30;;;;;;5109159;28;20102;-73
2022/06/17 07:00:50;;;;;;;4.15;0.85;;;14.80;65.40;;;;;;5110037;28;20055;-74
2022/06/17 07:03:19;;;;;;;1.83;0.65;;;14.80;65.50;;;;;;5109941;28;20530;-74
2022/06/17 07:05:54;;;;;;;2.45;0.85;;;14.80;65.80;;;;;;5109419;28;20070;-72
2022/06/17 07:08:25;;;;;;;1.55;0.45;;;14.80;65.40;;;;;;5110430;28;20106;-73
2022/06/17 07:10:53;;;;;;;1.70;0.60;;;14.90;65.70;;;;;;5109020;28;20743;-73
2022/06/17 07:13:22;;;;;;;6.72;0.85;;;14.80;65.80;;;;;;5110044;28;20035;-74
2022/06/17 07:15:53;;;;;;;9.85;0.98;;;14.80;65.50;;;;;;5109394;28;20034;-76
2022/06/17 07:18:23;;;;;;;4.32;1.13;;;14.90;65.50;;;;;;5109712;28;20048;-73
2022/06/17 07:20:53;;;;;;;3.72;0.85;;;14.90;65.60;;;;;;5109835;28;20109;-73
2022/06/17 07:23:22;;;;;;;5.82;0.82;;;14.90;65.70;;;;;;5108910;28;20093;-76
2022/06/17 07:25:50;;;;;;;3.63;0.95;;;14.90;66.10;;;;;;5110237;28;20055;-73
2022/06/17 07:28:20;;;;;;;4.15;1.05;;;14.90;66.30;;;;;;5108817;28;20039;-73
2022/06/17 07:30:49;;;;;;;2.17;0.50;;;14.90;66.50;;;;;;5109955;28;20032;-73
2022/06/17 07:33:17;;;;;;;1.80;0.65;;;14.90;66.50;;;;;;5109354;28;20036;-72
2022/06/17 07:39:54;;;;;;;1.92;0.60;;;14.90;66.70;;;;;;5077702;28;20059;-72
2022/06/17 07:43:01;;;;;;;3.75;0.95;;;15.00;67.60;;;;;;5109798;28;20045;-73
2022/06/17 07:46:07;;;;;;;2.95;0.73;;;15.00;66.50;;;;;;5108461;28;20031;-73
2022/06/17 07:49:13;;;;;;;2.03;0.82;;;15.00;66.70;;;;;;5109253;28;20032;-72
2022/06/17 07:52:19;;;;;;;2.50;0.60;;;15.00;66.90;;;;;;5109734;28;20116;-73
2022/06/17 07:55:25;;;;;;;2.33;0.77;;;15.00;66.90;;;;;;5109032;28;20032;-72
2022/06/17 07:58:31;;;;;;;8.00;1.27;;;15.10;66.90;;;;;;5108387;28;20059;-72
2022/06/17 08:01:37;;;;;;;16.15;1.05;;;15.10;67.10;;;;;;5109376;28;20032;-73
2022/06/17 08:04:43;;;;;;;2.05;1.02;;;15.10;66.80;;;;;;5112034;28;20103;-71
2022/06/17 08:07:49;;;;;;;4.13;0.70;;;15.20;66.80;;;;;;5112389;28;20023;-74
2022/06/17 08:10:55;;;;;;;5.10;1.25;;;15.20;66.70;;;;;;5112832;28;20028;-72
2022/06/17 08:14:01;;;;;;;4.50;0.93;;;15.30;66.70;;;;;;5113159;28;20054;-72
2022/06/17 08:17:07;;;;;;;4.85;1.02;;;15.30;66.90;;;;;;5112650;28;20070;-72
2022/06/17 08:20:13;;;;;;;4.15;1.27;;;15.40;67.00;;;;;;5111813;28;20144;-73
2022/06/17 08:23:21;;;;;;;6.90;0.88;;;15.40;66.60;;;;;;5113157;28;20552;-71
2022/06/17 08:26:27;;;;;;;3.08;0.80;;;15.50;66.50;;;;;;5113052;28;20024;-71
2022/06/17 08:29:33;;;;;;;0.85;0.32;;;15.50;66.10;;;;;;5111742;28;20048;-75
2022/06/17 08:32:45;;;;;;;3.97;0.60;;;15.60;65.70;;;;;;5112083;28;20398;-72
2022/06/17 08:35:51;;;;;;;8.38;1.08;;;15.70;65.30;;;;;;5112815;28;20032;-72
2022/06/17 08:38:57;;;;;;;5.95;1.20;;;15.80;64.80;;;;;;5111740;28;20559;-73
2022/06/17 08:42:12;;;;;;;7.07;1.10;;;15.80;64.50;;;;;;5111123;28;20052;-73
2022/06/17 08:44:58;;;;;;;3.60;0.90;;;15.90;64.40;;;;;;5111156;28;20143;-73
2022/06/17 08:47:45;;;;;;;2.72;0.80;;;15.90;64.40;;;;;;5110907;28;20031;-71
2022/06/17 08:50:57;;;;;;;3.33;1.42;;;16.00;64.30;;;;;;5093473;28;20088;-71
2022/06/17 08:53:35;;;;;;;15.02;1.63;;;16.10;64.10;;;;;;5110757;28;20043;-73
2022/06/17 08:56:14;;;;;;;4.18;0.80;;;16.10;63.50;;;;;;5112493;28;20114;-71
2022/06/17 08:59:09;;;;;;;5.32;1.52;;;16.10;63.40;;;;;;5109852;28;20063;-74
2022/06/17 09:02:24;;;;;;;5.45;0.77;;;16.20;63.40;;;;;;5112343;28;20103;-72
2022/06/17 09:05:22;;;;;;;3.40;0.90;;;16.30;63.40;;;;;;5110910;28;20035;-73
2022/06/17 09:08:16;;;;;;;7.07;0.95;;;16.30;63.50;;;;;;5111241;28;20030;-72
2022/06/17 09:10:58;;;;;;;3.25;1.25;;;16.40;63.80;;;;;;5111744;28;20035;-74
2022/06/17 09:13:56;;;;;;;8.13;0.98;;;16.50;63.90;;;;;;5111880;28;20047;-73
2022/06/17 09:16:59;;;;;;;1.38;0.70;;;16.60;63.90;;;;;;5111157;28;20518;-72
2022/06/17 09:20:14;;;;;;;6.05;1.92;;;16.70;62.60;;;;;;5111245;28;20056;-72
2022/06/17 09:23:21;;;;;;;5.78;1.08;;;16.80;61.40;;;;;;5111711;28;20042;-72
2022/06/17 09:26:36;;;;;;;8.05;1.02;;;16.80;59.90;;;;;;5111535;28;20024;-72
2022/06/17 09:29:22;;;;;;;10.23;1.25;;;17.00;58.80;;;;;;5109901;28;20085;-76
2022/06/17 09:32:31;;;;;;;5.05;0.98;;;17.00;58.60;;;;;;5110865;28;20036;-71
2022/06/17 09:35:24;;;;;;;1.88;0.80;;;17.10;57.70;;;;;;5111114;28;20437;-72
2022/06/17 09:38:11;;;;;;;10.60;2.30;;;17.10;57.70;;;;;;5110156;28;20036;-72
2022/06/17 09:41:17;;;;;;;4.60;0.80;;;17.20;57.10;;;;;;5093995;28;20110;-74
2022/06/17 09:44:05;;;;;;;5.68;1.23;;;17.20;56.60;;;;;;5110903;28;20447;-71
2022/06/17 09:47:17;;;;;;;5.38;1.20;;;17.30;56.40;;;;;;5110378;28;20036;-71
2022/06/17 09:50:47;;;;;;;6.13;1.30;;;17.30;56.10;;;;;;5109942;28;20036;-72
2022/06/17 09:54:11;;;;;;;1.75;0.70;;;17.40;56.10;;;;;;5110320;28;20071;-71
2022/06/17 09:57:23;;;;;;;8.00;0.98;;;17.50;55.60;;;;;;5110716;28;20061;-73
2022/06/17 10:00:41;;;;;;;8.02;1.67;;;17.60;55.30;;;;;;5109521;28;20040;-72
2022/06/17 10:03:34;;;;;;;2.80;0.80;;;17.60;54.90;;;;;;5109847;28;20081;-73
2022/06/17 10:06:10;;;;;;;5.03;0.98;;;17.70;55.40;;;;;;5110393;28;20036;-72
2022/06/17 10:09:34;;;;;;;2.75;0.70;;;17.80;55.40;;;;;;5110281;28;20110;-73
2022/06/17 10:12:58;;;;;;;3.50;0.90;;;17.90;55.10;;;;;;5108641;28;20048;-74
2022/06/17 10:19:39;;;;;;;6.05;1.20;;;18.00;54.90;;;;;;5110756;28;20120;-72
2022/06/17 10:22:48;;;;;;;1.20;0.70;;;18.10;54.70;;;;;;5109275;28;20043;-72
2022/06/17 10:25:54;;;;;;;3.70;1.20;;;18.20;54.10;;;;;;5107630;28;20032;-75
2022/06/17 10:28:24;;;;;;;2.78;0.82;;;18.20;54.00;;;;;;5109194;28;20558;-74
2022/06/17 10:31:16;;;;;;;3.25;0.85;;;18.30;54.10;;;;;;5110645;28;20032;-72
2022/06/17 10:34:22;;;;;;;6.28;1.02;;;18.40;54.50;;;;;;5109099;28;20075;-74
2022/06/17 10:37:28;;;;;;;2.47;0.70;;;18.40;53.30;;;;;;5108544;28;20028;-75
2022/06/17 10:40:34;;;;;;;6.43;1.13;;;18.40;52.90;;;;;;5110286;28;20032;-73
2022/06/17 10:43:40;;;;;;;5.80;1.10;;;18.60;53.20;;;;;;5109312;28;20043;-73
2022/06/17 10:46:46;;;;;;;7.10;1.52;;;18.60;53.00;;;;;;5109299;28;20060;-73
2022/06/17 10:49:55;;;;;;;3.47;1.00;;;18.70;52.90;;;;;;5109718;28;20036;-72
2022/06/17 10:53:04;;;;;;;10.43;2.22;;;18.70;52.90;;;;;;5109159;28;20032;-71
2022/06/17 10:56:10;;;;;;;2.85;0.73;;;18.80;52.80;;;;;;5100725;28;20032;-74
2022/06/17 10:59:19;;;;;;;8.02;2.03;;;18.90;51.40;;;;;;5109500;28;20478;-73
2022/06/17 11:01:46;;;;;;;3.60;1.00;;;19.00;51.10;;;;;;5109251;28;20111;-73
2022/06/17 11:04:52;;;;;;;4.38;1.65;;;19.00;50.60;;;;;;5109105;28;20027;-74
2022/06/17 11:07:27;;;;;;;3.88;1.13;;;19.10;49.90;;;;;;5109257;28;20046;-71
2022/06/17 11:09:57;;;;;;;2.40;1.20;;;19.10;49.80;;;;;;5110085;28;20482;-75
2022/06/17 11:12:36;;;;;;;5.72;0.77;;;19.10;48.70;;;;;;5108937;28;20112;-73
2022/06/17 11:15:22;;;;;;;9.00;2.47;;;19.20;49.00;;;;;;5109915;28;20135;-74
2022/06/17 11:17:52;;;;;;;5.90;1.05;;;19.20;48.80;;;;;;5109625;28;20450;-74
2022/06/17 11:20:28;;;;;;;4.88;1.17;;;19.20;47.70;;;;;;5109397;28;20040;-73
2022/06/17 11:22:57;;;;;;;7.07;1.17;;;19.30;47.70;;;;;;5110025;28;20024;-73
2022/06/17 11:25:33;;;;;;;6.47;1.30;;;19.30;47.20;;;;;;5108297;28;20024;-74
2022/06/17 11:28:11;;;;;;;3.22;1.45;;;19.40;47.50;;;;;;5110194;28;20058;-74
2022/06/17 11:30:53;;;;;;;3.97;1.00;;;19.40;47.70;;;;;;5109381;28;20656;-73
2022/06/17 11:33:26;;;;;;;6.88;1.58;;;19.40;47.90;;;;;;5109184;28;20043;-72
2022/06/17 11:36:19;;;;;;;5.22;1.15;;;19.50;48.10;;;;;;5109783;28;20482;-76
2022/06/17 11:38:47;;;;;;;4.40;1.00;;;19.50;48.20;;;;;;5112515;28;20023;-73
2022/06/17 11:41:33;;;;;;;8.13;1.17;;;19.50;48.30;;;;;;5100509;28;20512;-72
2022/06/17 11:44:12;;;;;;;5.32;0.90;;;19.60;48.70;;;;;;5093191;28;20042;-71
2022/06/17 11:46:55;;;;;;;4.53;1.00;;;19.60;48.90;;;;;;5092523;28;20032;-72
2022/06/17 11:49:22;;;;;;;6.78;1.00;;;19.60;49.20;;;;;;5093504;28;20028;-73
2022/06/17 11:52:03;;;;;;;3.67;1.17;;;19.70;49.20;;;;;;5092211;28;20032;-73
2022/06/17 11:54:33;;;;;;;6.65;1.23;;;19.70;49.00;;;;;;5093150;28;20032;-74
2022/06/17 11:57:20;;;;;;;12.20;1.77;;;19.70;48.90;;;;;;5093048;28;20475;-74
2022/06/17 11:59:50;;;;;;;7.30;1.15;;;19.80;49.10;;;;;;5092398;28;20032;-74
2022/06/17 12:02:17;;;;;;;6.82;2.40;;;19.80;48.80;;;;;;5093230;28;20024;-73
2022/06/17 12:04:48;;;;;;;5.03;1.23;;;19.80;48.60;;;;;;5092001;28;20028;-75
2022/06/17 12:07:42;;;;;;;15.57;2.90;;;19.90;49.00;;;;;;5092975;28;20393;-75
2022/06/17 12:10:30;;;;;;;21.85;3.72;;;19.90;53.70;;;;;;5111896;27;20398;-72
2022/06/17 12:13:18;;;;;;;11.18;3.42;;;19.90;56.20;;;;;;5091687;28;20040;-73
2022/06/17 12:15:52;;;;;;;27.40;5.10;;;19.80;57.00;;;;;;5092749;28;20020;-73
2022/06/17 12:18:38;;;;;;;26.70;4.10;;;19.80;58.10;;;;;;5115697;27;20043;-74
2022/06/17 12:21:49;;;;;;;28.08;11.43;;;19.80;59.20;;;;;;5132326;27;20257;-74
2022/06/17 12:24:40;;;;;;;18.58;6.20;;;19.80;60.30;;;;;;5015334;28;20061;-74
2022/06/17 12:27:24;;;;;;;20.95;5.57;;;19.80;61.10;;;;;;5121147;27;20070;-72
2022/06/17 12:29:58;;;;;;;24.08;4.93;;;19.80;61.60;;;;;;5122490;27;20108;-75
2022/06/17 12:32:45;;;;;;;20.00;4.80;;;19.80;62.10;;;;;;5123189;27;20056;-71
2022/06/17 12:35:35;;;;;;;15.88;4.70;;;19.80;62.40;;;;;;5091571;28;20111;-72
2022/06/17 12:38:17;;;;;;;19.48;4.53;;;19.80;62.60;;;;;;5113576;27;20382;-74
2022/06/17 12:40:52;;;;;;;20.73;4.75;;;19.70;62.50;;;;;;5118249;27;20500;-73
2022/06/17 12:43:53;;;;;;;18.15;3.55;;;19.70;62.40;;;;;;5120250;27;20031;-73
2022/06/17 12:46:33;;;;;;;15.73;3.17;;;19.70;62.80;;;;;;5115548;27;20027;-71
2022/06/17 12:55:49;;;;;;;22.23;3.88;;;19.70;64.90;;;;;;5111954;28;20034;-73
2022/06/17 12:58:46;;;;;;;23.35;4.80;;;19.70;65.70;;;;;;5078493;28;20043;-72
2022/06/17 13:01:30;;;;;;;22.42;4.20;;;19.70;66.50;;;;;;5111534;28;20031;-72
2022/06/17 13:04:12;;;;;;;18.38;3.78;;;19.60;67.40;;;;;;5111723;28;20032;-73
2022/06/17 13:07:00;;;;;;;19.42;4.40;;;19.60;68.00;;;;;;5122245;27;20039;-74
2022/06/17 13:09:43;;;;;;;16.83;4.45;;;19.60;68.40;;;;;;5131770;27;20114;-73
2022/06/17 13:12:20;;;;;;;19.10;5.82;;;19.60;69.10;;;;;;5131921;27;20571;-70
2022/06/17 13:15:07;;;;;;;17.70;4.47;;;19.50;69.50;;;;;;5132648;27;20151;-70
2022/06/17 13:17:50;;;;;;;17.20;5.57;;;19.50;70.00;;;;;;5123644;27;20044;-76
2022/06/17 13:20:26;;;;;;;17.52;3.35;;;19.50;70.60;;;;;;5111890;28;20049;-77
2022/06/17 13:23:14;;;;;;;22.02;4.40;;;19.40;70.60;;;;;;5111158;28;20035;-75
2022/06/17 13:25:49;;;;;;;26.27;5.57;;;19.40;70.50;;;;;;5111010;28;20024;-72
2022/06/17 13:28:54;;;;;;;16.65;4.53;;;19.40;71.10;;;;;;5112249;27;20107;-76
2022/06/17 13:31:43;;;;;;;21.90;3.92;;;19.40;71.50;;;;;;5095234;27;20039;-73
2022/06/17 13:34:32;;;;;;;17.98;4.32;;;19.40;71.60;;;;;;5095661;27;20039;-74
2022/06/17 13:37:04;;;;;;;18.13;4.40;;;19.40;71.40;;;;;;5132218;27;20478;-72
2022/06/17 13:39:37;;;;;;;21.40;4.07;;;19.30;71.10;;;;;;5130675;27;20032;-76
2022/06/17 13:42:14;;;;;;;21.23;3.83;;;19.30;71.20;;;;;;5091622;27;20111;-77
2022/06/17 13:45:14;;;;;;;21.77;4.15;;;19.30;71.40;;;;;;5090338;28;20035;-78
2022/06/17 13:47:59;;;;;;;11.05;3.78;;;19.30;71.50;;;;;;5089893;28;20863;-72
2022/06/17 13:50:45;;;;;;;15.40;3.78;;;19.30;71.70;;;;;;5091117;28;20028;-73
2022/06/17 13:53:34;;;;;;;15.82;4.40;;;19.20;71.40;;;;;;5082799;28;20132;-72
2022/06/17 13:56:19;;;;;;;18.05;5.40;;;19.20;71.70;;;;;;5090109;28;20074;-73
2022/06/17 13:58:59;;;;;;;16.45;4.13;;;19.10;71.90;;;;;;5090900;28;20433;-73
2022/06/17 14:01:25;;;;;;;15.48;4.70;;;19.10;72.30;;;;;;5088745;28;20382;-74
2022/06/17 14:03:55;;;;;;;17.30;5.38;;;19.00;72.50;;;;;;5090890;28;20024;-72
2022/06/17 14:06:23;;;;;;;24.27;4.55;;;19.00;72.60;;;;;;5090314;28;20024;-76
2022/06/17 14:08:59;;;;;;;18.05;4.68;;;19.00;72.60;;;;;;5090024;28;20020;-74
2022/06/17 14:11:39;;;;;;;21.10;4.45;;;18.90;72.40;;;;;;5089504;28;20417;-72
2022/06/17 14:14:18;;;;;;;19.45;4.15;;;18.90;72.90;;;;;;5089392;28;20043;-72
2022/06/17 14:17:13;;;;;;;15.90;4.25;;;18.90;72.80;;;;;;5090640;28;20039;-72